sensor_id;sensor_type;location;lat;lon;timestamp;P1;durP1;ratioP1;P2;durP2;ratioP2
7761;SDS011;3925;48.636;9.516;2022-11-21T00:01:47;0.40;;;0.30;;
7761;SDS011;3925;48.636;9.516;2022-11-21T00:04:14;0.63;;;0.63;;
7761;SDS011;3925;48.636;9.516;2022-11-21T00:06:41;1.47;;;0.50;;
7761;SDS011;3925;48.636;9.516;2022-11-21T00:09:09;0.77;;;0.77;;
7761;SDS011;3925;48.636;9.516;2022-11-21T00:11:36;1.70;;;0.60;;
7761;SDS011;3925;48.636;9.516;2022-11-21T00:14:02;1.53;;;0.43;;
7761;SDS011;3925;48.636;9.516;2022-11-21T00:16:29;0.80;;;0.80;;
7761;SDS011;3925;48.636;9.516;2022-11-21T00:18:56;1.60;;;0.70;;
7761;SDS011;3925;48.636;9.516;2022-11-21T00:21:23;0.83;;;0.70;;
7761;SDS011;3925;48.636;9.516;2022-11-21T00:23:50;0.40;;;0.40;;
7761;SDS011;3925;48.636;9.516;2022-11-21T00:26:19;0.60;;;0.60;;
7761;SDS011;3925;48.636;9.516;2022-11-21T00:28:46;0.50;;;0.50;;
7761;SDS011;3925;48.636;9.516;2022-11-21T00:31:17;0.83;;;0.60;;
7761;SDS011;3925;48.636;9.516;2022-11-21T00:33:44;0.67;;;0.50;;
7761;SDS011;3925;48.636;9.516;2022-11-21T00:36:11;0.60;;;0.60;;
7761;SDS011;3925;48.636;9.516;2022-11-21T00:38:38;0.40;;;0.40;;
7761;SDS011;3925;48.636;9.516;2022-11-21T00:41:05;0.60;;;0.43;;
7761;SDS011;3925;48.636;9.516;2022-11-21T00:43:33;1.70;;;0.90;;
7761;SDS011;3925;48.636;9.516;2022-11-21T00:46:00;1.10;;;0.80;;
7761;SDS011;3925;48.636;9.516;2022-11-21T00:48:27;0.63;;;0.43;;
7761;SDS011;3925;48.636;9.516;2022-11-21T00:50:54;1.37;;;0.50;;
7761;SDS011;3925;48.636;9.516;2022-11-21T00:53:21;0.90;;;0.73;;
7761;SDS011;3925;48.636;9.516;2022-11-21T00:55:48;1.30;;;0.63;;
7761;SDS011;3925;48.636;9.516;2022-11-21T00:58:15;0.60;;;0.60;;
7761;SDS011;3925;48.636;9.516;2022-11-21T01:00:43;0.50;;;0.50;;
7761;SDS011;3925;48.636;9.516;2022-11-21T01:03:10;1.67;;;0.60;;
7761;SDS011;3925;48.636;9.516;2022-11-21T01:05:37;0.70;;;0.57;;
7761;SDS011;3925;48.636;9.516;2022-11-21T01:08:04;1.40;;;0.53;;
7761;SDS011;3925;48.636;9.516;2022-11-21T01:10:32;0.80;;;0.50;;
7761;SDS011;3925;48.636;9.516;2022-11-21T01:12:59;0.50;;;0.50;;
7761;SDS011;3925;48.636;9.516;2022-11-21T01:15:26;1.70;;;0.77;;
7761;SDS011;3925;48.636;9.516;2022-11-21T01:17:54;0.40;;;0.40;;
7761;SDS011;3925;48.636;9.516;2022-11-21T01:20:21;0.50;;;0.43;;
7761;SDS011;3925;48.636;9.516;2022-11-21T01:22:48;0.50;;;0.50;;
7761;SDS011;3925;48.636;9.516;2022-11-21T01:25:15;1.23;;;0.50;;
7761;SDS011;3925;48.636;9.516;2022-11-21T01:27:42;0.50;;;0.50;;
7761;SDS011;3925;48.636;9.516;2022-11-21T01:30:09;1.20;;;0.70;;
7761;SDS011;3925;48.636;9.516;2022-11-21T01:32:37;1.30;;;0.57;;
7761;SDS011;3925;48.636;9.516;2022-11-21T01:35:06;0.80;;;0.53;;
7761;SDS011;3925;48.636;9.516;2022-11-21T01:37:33;0.40;;;0.40;;
7761;SDS011;3925;48.636;9.516;2022-11-21T01:40:00;1.07;;;0.97;;
7761;SDS011;3925;48.636;9.516;2022-11-21T01:42:27;0.73;;;0.70;;
7761;SDS011;3925;48.636;9.516;2022-11-21T01:44:53;2.40;;;0.60;;
7761;SDS011;3925;48.636;9.516;2022-11-21T01:47:20;1.70;;;0.63;;
7761;SDS011;3925;48.636;9.516;2022-11-21T01:49:47;5.37;;;0.70;;
7761;SDS011;3925;48.636;9.516;2022-11-21T01:52:18;2.10;;;0.60;;
7761;SDS011;3925;48.636;9.516;2022-11-21T01:54:50;1.10;;;0.90;;
7761;SDS011;3925;48.636;9.516;2022-11-21T01:57:21;3.07;;;1.20;;
7761;SDS011;3925;48.636;9.516;2022-11-21T01:59:53;1.73;;;1.13;;
7761;SDS011;3925;48.636;9.516;2022-11-21T02:02:24;3.13;;;1.20;;
7761;SDS011;3925;48.636;9.516;2022-11-21T02:04:54;0.83;;;0.83;;
7761;SDS011;3925;48.636;9.516;2022-11-21T02:07:23;2.10;;;0.73;;
7761;SDS011;3925;48.636;9.516;2022-11-21T02:09:52;3.63;;;0.90;;
7761;SDS011;3925;48.636;9.516;2022-11-21T02:12:23;4.13;;;0.80;;
7761;SDS011;3925;48.636;9.516;2022-11-21T02:14:54;1.67;;;0.83;;
7761;SDS011;3925;48.636;9.516;2022-11-21T02:17:21;2.10;;;0.90;;
7761;SDS011;3925;48.636;9.516;2022-11-21T02:19:49;2.77;;;0.80;;
7761;SDS011;3925;48.636;9.516;2022-11-21T02:22:21;2.03;;;1.07;;
7761;SDS011;3925;48.636;9.516;2022-11-21T02:25:04;1.60;;;0.70;;
7761;SDS011;3925;48.636;9.516;2022-11-21T02:27:32;2.53;;;0.80;;
7761;SDS011;3925;48.636;9.516;2022-11-21T02:30:00;1.23;;;0.87;;
7761;SDS011;3925;48.636;9.516;2022-11-21T02:32:31;2.30;;;0.63;;
7761;SDS011;3925;48.636;9.516;2022-11-21T02:34:59;2.73;;;0.70;;
7761;SDS011;3925;48.636;9.516;2022-11-21T02:37:26;6.33;;;1.00;;
7761;SDS011;3925;48.636;9.516;2022-11-21T02:39:53;2.77;;;1.00;;
7761;SDS011;3925;48.636;9.516;2022-11-21T02:42:27;1.90;;;1.07;;
7761;SDS011;3925;48.636;9.516;2022-11-21T02:44:59;8.13;;;1.07;;
7761;SDS011;3925;48.636;9.516;2022-11-21T02:47:33;1.13;;;0.90;;
7761;SDS011;3925;48.636;9.516;2022-11-21T02:50:05;2.37;;;1.10;;
7761;SDS011;3925;48.636;9.516;2022-11-21T02:52:37;5.00;;;1.03;;
7761;SDS011;3925;48.636;9.516;2022-11-21T02:55:04;1.10;;;0.67;;
7761;SDS011;3925;48.636;9.516;2022-11-21T02:57:33;2.40;;;0.97;;
7761;SDS011;3925;48.636;9.516;2022-11-21T03:00:00;1.90;;;1.00;;
7761;SDS011;3925;48.636;9.516;2022-11-21T03:02:27;2.00;;;1.30;;
7761;SDS011;3925;48.636;9.516;2022-11-21T03:04:53;1.27;;;0.80;;
7761;SDS011;3925;48.636;9.516;2022-11-21T03:07:21;2.90;;;0.70;;
7761;SDS011;3925;48.636;9.516;2022-11-21T03:09:48;1.17;;;0.80;;
7761;SDS011;3925;48.636;9.516;2022-11-21T03:12:14;1.07;;;0.70;;
7761;SDS011;3925;48.636;9.516;2022-11-21T03:14:43;1.53;;;1.00;;
7761;SDS011;3925;48.636;9.516;2022-11-21T03:17:10;5.73;;;1.23;;
7761;SDS011;3925;48.636;9.516;2022-11-21T03:19:36;7.80;;;3.40;;
7761;SDS011;3925;48.636;9.516;2022-11-21T03:22:03;2.73;;;1.30;;
7761;SDS011;3925;48.636;9.516;2022-11-21T03:24:30;2.03;;;1.20;;
7761;SDS011;3925;48.636;9.516;2022-11-21T03:26:57;3.70;;;1.30;;
7761;SDS011;3925;48.636;9.516;2022-11-21T03:29:24;2.37;;;1.03;;
7761;SDS011;3925;48.636;9.516;2022-11-21T03:31:52;1.70;;;1.10;;
7761;SDS011;3925;48.636;9.516;2022-11-21T03:34:19;2.43;;;1.30;;
7761;SDS011;3925;48.636;9.516;2022-11-21T03:36:46;2.70;;;1.00;;
7761;SDS011;3925;48.636;9.516;2022-11-21T03:39:13;2.43;;;1.00;;
7761;SDS011;3925;48.636;9.516;2022-11-21T03:41:40;3.43;;;1.10;;
7761;SDS011;3925;48.636;9.516;2022-11-21T03:44:07;3.13;;;1.00;;
7761;SDS011;3925;48.636;9.516;2022-11-21T03:46:35;6.73;;;1.10;;
7761;SDS011;3925;48.636;9.516;2022-11-21T03:49:05;2.83;;;1.43;;
7761;SDS011;3925;48.636;9.516;2022-11-21T03:51:32;3.40;;;0.97;;
7761;SDS011;3925;48.636;9.516;2022-11-21T03:53:59;1.10;;;0.80;;
7761;SDS011;3925;48.636;9.516;2022-11-21T03:56:26;0.60;;;0.60;;
7761;SDS011;3925;48.636;9.516;2022-11-21T03:58:53;2.00;;;0.90;;
7761;SDS011;3925;48.636;9.516;2022-11-21T04:01:20;3.33;;;0.70;;
7761;SDS011;3925;48.636;9.516;2022-11-21T04:03:48;1.17;;;0.70;;
7761;SDS011;3925;48.636;9.516;2022-11-21T04:06:19;1.00;;;0.60;;
7761;SDS011;3925;48.636;9.516;2022-11-21T04:08:47;0.73;;;0.67;;
7761;SDS011;3925;48.636;9.516;2022-11-21T04:11:14;0.63;;;0.57;;
7761;SDS011;3925;48.636;9.516;2022-11-21T04:13:41;0.80;;;0.63;;
7761;SDS011;3925;48.636;9.516;2022-11-21T04:16:08;0.70;;;0.70;;
7761;SDS011;3925;48.636;9.516;2022-11-21T04:18:35;1.30;;;0.70;;
7761;SDS011;3925;48.636;9.516;2022-11-21T04:21:03;0.77;;;0.77;;
7761;SDS011;3925;48.636;9.516;2022-11-21T04:23:32;0.50;;;0.50;;
7761;SDS011;3925;48.636;9.516;2022-11-21T04:25:59;0.50;;;0.50;;
7761;SDS011;3925;48.636;9.516;2022-11-21T04:28:26;0.70;;;0.43;;
7761;SDS011;3925;48.636;9.516;2022-11-21T04:30:53;0.83;;;0.40;;
7761;SDS011;3925;48.636;9.516;2022-11-21T04:33:20;1.73;;;0.30;;
7761;SDS011;3925;48.636;9.516;2022-11-21T04:35:47;0.50;;;0.50;;
7761;SDS011;3925;48.636;9.516;2022-11-21T04:38:14;0.57;;;0.57;;
7761;SDS011;3925;48.636;9.516;2022-11-21T04:40:43;0.33;;;0.33;;
7761;SDS011;3925;48.636;9.516;2022-11-21T04:43:10;0.43;;;0.43;;
7761;SDS011;3925;48.636;9.516;2022-11-21T04:45:37;3.33;;;0.60;;
7761;SDS011;3925;48.636;9.516;2022-11-21T04:48:04;1.40;;;0.70;;
7761;SDS011;3925;48.636;9.516;2022-11-21T04:50:31;0.93;;;0.50;;
7761;SDS011;3925;48.636;9.516;2022-11-21T04:52:58;0.70;;;0.30;;
7761;SDS011;3925;48.636;9.516;2022-11-21T04:55:26;0.60;;;0.40;;
7761;SDS011;3925;48.636;9.516;2022-11-21T04:57:57;0.90;;;0.87;;
7761;SDS011;3925;48.636;9.516;2022-11-21T05:00:24;1.60;;;0.50;;
7761;SDS011;3925;48.636;9.516;2022-11-21T05:02:51;0.50;;;0.50;;
7761;SDS011;3925;48.636;9.516;2022-11-21T05:05:18;0.20;;;0.20;;
7761;SDS011;3925;48.636;9.516;2022-11-21T05:07:45;1.27;;;0.40;;
7761;SDS011;3925;48.636;9.516;2022-11-21T05:10:11;1.23;;;0.50;;
7761;SDS011;3925;48.636;9.516;2022-11-21T05:12:38;0.30;;;0.30;;
7761;SDS011;3925;48.636;9.516;2022-11-21T05:15:24;0.37;;;0.30;;
7761;SDS011;3925;48.636;9.516;2022-11-21T05:17:51;0.30;;;0.30;;
7761;SDS011;3925;48.636;9.516;2022-11-21T05:20:18;1.47;;;0.37;;
7761;SDS011;3925;48.636;9.516;2022-11-21T05:22:46;0.33;;;0.30;;
7761;SDS011;3925;48.636;9.516;2022-11-21T05:25:17;0.73;;;0.40;;
7761;SDS011;3925;48.636;9.516;2022-11-21T05:27:44;0.40;;;0.40;;
7761;SDS011;3925;48.636;9.516;2022-11-21T05:30:12;0.20;;;0.20;;
7761;SDS011;3925;48.636;9.516;2022-11-21T05:32:41;0.33;;;0.33;;
7761;SDS011;3925;48.636;9.516;2022-11-21T05:35:09;0.93;;;0.40;;
7761;SDS011;3925;48.636;9.516;2022-11-21T05:37:35;0.97;;;0.30;;
7761;SDS011;3925;48.636;9.516;2022-11-21T05:40:02;0.40;;;0.40;;
7761;SDS011;3925;48.636;9.516;2022-11-21T05:42:30;0.33;;;0.33;;
7761;SDS011;3925;48.636;9.516;2022-11-21T05:45:14;0.40;;;0.40;;
7761;SDS011;3925;48.636;9.516;2022-11-21T05:47:43;0.30;;;0.30;;
7761;SDS011;3925;48.636;9.516;2022-11-21T05:50:09;0.50;;;0.30;;
7761;SDS011;3925;48.636;9.516;2022-11-21T05:52:36;0.40;;;0.33;;
7761;SDS011;3925;48.636;9.516;2022-11-21T05:55:03;0.40;;;0.30;;
7761;SDS011;3925;48.636;9.516;2022-11-21T05:57:30;2.13;;;0.50;;
7761;SDS011;3925;48.636;9.516;2022-11-21T05:59:57;3.33;;;0.70;;
7761;SDS011;3925;48.636;9.516;2022-11-21T06:02:24;0.60;;;0.60;;
7761;SDS011;3925;48.636;9.516;2022-11-21T06:05:10;0.40;;;0.40;;
7761;SDS011;3925;48.636;9.516;2022-11-21T06:07:36;2.10;;;0.90;;
7761;SDS011;3925;48.636;9.516;2022-11-21T06:10:03;0.33;;;0.33;;
7761;SDS011;3925;48.636;9.516;2022-11-21T06:12:30;0.50;;;0.30;;
7761;SDS011;3925;48.636;9.516;2022-11-21T06:14:57;0.37;;;0.37;;
7761;SDS011;3925;48.636;9.516;2022-11-21T06:17:24;0.63;;;0.30;;
7761;SDS011;3925;48.636;9.516;2022-11-21T06:19:51;2.70;;;2.50;;
7761;SDS011;3925;48.636;9.516;2022-11-21T06:22:19;1.30;;;0.60;;
7761;SDS011;3925;48.636;9.516;2022-11-21T06:24:46;1.80;;;0.30;;
7761;SDS011;3925;48.636;9.516;2022-11-21T06:27:13;0.30;;;0.30;;
7761;SDS011;3925;48.636;9.516;2022-11-21T06:29:39;0.93;;;0.50;;
7761;SDS011;3925;48.636;9.516;2022-11-21T06:32:06;2.03;;;0.40;;
7761;SDS011;3925;48.636;9.516;2022-11-21T06:34:33;0.40;;;0.30;;
7761;SDS011;3925;48.636;9.516;2022-11-21T06:37:00;1.67;;;0.50;;
7761;SDS011;3925;48.636;9.516;2022-11-21T06:39:28;0.60;;;0.40;;
7761;SDS011;3925;48.636;9.516;2022-11-21T06:41:55;1.10;;;0.53;;
7761;SDS011;3925;48.636;9.516;2022-11-21T06:44:23;0.70;;;0.70;;
7761;SDS011;3925;48.636;9.516;2022-11-21T06:46:49;0.80;;;0.80;;
7761;SDS011;3925;48.636;9.516;2022-11-21T06:49:16;1.43;;;0.50;;
7761;SDS011;3925;48.636;9.516;2022-11-21T06:51:43;0.37;;;0.37;;
7761;SDS011;3925;48.636;9.516;2022-11-21T06:54:10;1.47;;;0.50;;
7761;SDS011;3925;48.636;9.516;2022-11-21T06:56:38;1.03;;;0.80;;
7761;SDS011;3925;48.636;9.516;2022-11-21T06:59:05;0.70;;;0.70;;
7761;SDS011;3925;48.636;9.516;2022-11-21T07:01:32;0.87;;;0.70;;
7761;SDS011;3925;48.636;9.516;2022-11-21T07:03:59;1.37;;;1.27;;
7761;SDS011;3925;48.636;9.516;2022-11-21T07:06:25;0.67;;;0.60;;
7761;SDS011;3925;48.636;9.516;2022-11-21T07:08:52;0.97;;;0.60;;
7761;SDS011;3925;48.636;9.516;2022-11-21T07:11:19;0.70;;;0.70;;
7761;SDS011;3925;48.636;9.516;2022-11-21T07:13:48;0.93;;;0.57;;
7761;SDS011;3925;48.636;9.516;2022-11-21T07:16:15;2.13;;;0.90;;
7761;SDS011;3925;48.636;9.516;2022-11-21T07:18:41;0.77;;;0.77;;
7761;SDS011;3925;48.636;9.516;2022-11-21T07:21:09;1.10;;;0.70;;
7761;SDS011;3925;48.636;9.516;2022-11-21T07:23:36;2.43;;;0.60;;
7761;SDS011;3925;48.636;9.516;2022-11-21T07:26:04;1.47;;;0.70;;
7761;SDS011;3925;48.636;9.516;2022-11-21T07:28:32;4.07;;;2.27;;
7761;SDS011;3925;48.636;9.516;2022-11-21T07:31:01;1.60;;;0.70;;
7761;SDS011;3925;48.636;9.516;2022-11-21T07:33:28;1.33;;;0.80;;
7761;SDS011;3925;48.636;9.516;2022-11-21T07:35:55;1.23;;;0.87;;
7761;SDS011;3925;48.636;9.516;2022-11-21T07:38:23;0.97;;;0.90;;
7761;SDS011;3925;48.636;9.516;2022-11-21T07:40:50;1.40;;;0.80;;
7761;SDS011;3925;48.636;9.516;2022-11-21T07:43:17;3.43;;;1.13;;
7761;SDS011;3925;48.636;9.516;2022-11-21T07:45:43;1.50;;;0.70;;
7761;SDS011;3925;48.636;9.516;2022-11-21T07:48:12;2.33;;;0.83;;
7761;SDS011;3925;48.636;9.516;2022-11-21T07:50:39;1.87;;;1.03;;
7761;SDS011;3925;48.636;9.516;2022-11-21T07:53:06;2.90;;;0.90;;
7761;SDS011;3925;48.636;9.516;2022-11-21T07:55:34;3.10;;;1.17;;
7761;SDS011;3925;48.636;9.516;2022-11-21T07:58:02;3.03;;;0.90;;
7761;SDS011;3925;48.636;9.516;2022-11-21T08:00:31;1.43;;;0.90;;
7761;SDS011;3925;48.636;9.516;2022-11-21T08:02:59;2.97;;;1.00;;
7761;SDS011;3925;48.636;9.516;2022-11-21T08:05:28;3.87;;;1.00;;
7761;SDS011;3925;48.636;9.516;2022-11-21T08:07:55;2.40;;;0.87;;
7761;SDS011;3925;48.636;9.516;2022-11-21T08:10:22;1.20;;;0.60;;
7761;SDS011;3925;48.636;9.516;2022-11-21T08:12:49;1.53;;;1.00;;
7761;SDS011;3925;48.636;9.516;2022-11-21T08:15:16;2.50;;;1.00;;
7761;SDS011;3925;48.636;9.516;2022-11-21T08:17:44;1.13;;;0.83;;
7761;SDS011;3925;48.636;9.516;2022-11-21T08:20:12;2.73;;;1.00;;
7761;SDS011;3925;48.636;9.516;2022-11-21T08:22:40;2.47;;;0.80;;
7761;SDS011;3925;48.636;9.516;2022-11-21T08:25:08;2.53;;;0.90;;
7761;SDS011;3925;48.636;9.516;2022-11-21T08:27:36;2.20;;;1.30;;
7761;SDS011;3925;48.636;9.516;2022-11-21T08:30:04;1.43;;;1.27;;
7761;SDS011;3925;48.636;9.516;2022-11-21T08:32:32;1.30;;;0.77;;
7761;SDS011;3925;48.636;9.516;2022-11-21T08:34:59;0.87;;;0.77;;
7761;SDS011;3925;48.636;9.516;2022-11-21T08:37:26;3.00;;;0.70;;
7761;SDS011;3925;48.636;9.516;2022-11-21T08:39:55;1.70;;;0.97;;
7761;SDS011;3925;48.636;9.516;2022-11-21T08:42:24;1.80;;;0.97;;
7761;SDS011;3925;48.636;9.516;2022-11-21T08:44:51;1.63;;;0.90;;
7761;SDS011;3925;48.636;9.516;2022-11-21T08:47:18;1.00;;;0.80;;
7761;SDS011;3925;48.636;9.516;2022-11-21T08:49:46;2.40;;;1.10;;
7761;SDS011;3925;48.636;9.516;2022-11-21T08:52:13;1.33;;;0.90;;
7761;SDS011;3925;48.636;9.516;2022-11-21T08:54:41;0.80;;;0.60;;
7761;SDS011;3925;48.636;9.516;2022-11-21T08:57:10;1.37;;;0.90;;
7761;SDS011;3925;48.636;9.516;2022-11-21T08:59:37;1.80;;;0.97;;
7761;SDS011;3925;48.636;9.516;2022-11-21T09:02:04;2.57;;;1.30;;
7761;SDS011;3925;48.636;9.516;2022-11-21T09:04:31;1.77;;;1.17;;
7761;SDS011;3925;48.636;9.516;2022-11-21T09:06:58;2.20;;;1.03;;
7761;SDS011;3925;48.636;9.516;2022-11-21T09:09:25;3.10;;;1.50;;
7761;SDS011;3925;48.636;9.516;2022-11-21T09:11:52;2.60;;;1.57;;
7761;SDS011;3925;48.636;9.516;2022-11-21T09:14:21;2.17;;;1.20;;
7761;SDS011;3925;48.636;9.516;2022-11-21T09:17:05;3.17;;;1.43;;
7761;SDS011;3925;48.636;9.516;2022-11-21T09:19:54;3.13;;;1.60;;
7761;SDS011;3925;48.636;9.516;2022-11-21T09:22:22;2.50;;;1.37;;
7761;SDS011;3925;48.636;9.516;2022-11-21T09:24:49;1.63;;;1.00;;
7761;SDS011;3925;48.636;9.516;2022-11-21T09:27:16;2.30;;;1.03;;
7761;SDS011;3925;48.636;9.516;2022-11-21T09:29:44;4.87;;;1.33;;
7761;SDS011;3925;48.636;9.516;2022-11-21T09:32:11;4.57;;;1.93;;
7761;SDS011;3925;48.636;9.516;2022-11-21T09:34:38;2.50;;;1.20;;
7761;SDS011;3925;48.636;9.516;2022-11-21T09:37:04;4.30;;;1.47;;
7761;SDS011;3925;48.636;9.516;2022-11-21T09:39:32;2.23;;;1.20;;
7761;SDS011;3925;48.636;9.516;2022-11-21T09:42:02;2.50;;;1.27;;
7761;SDS011;3925;48.636;9.516;2022-11-21T09:47:39;4.10;;;1.20;;
7761;SDS011;3925;48.636;9.516;2022-11-21T09:50:16;6.00;;;1.27;;
7761;SDS011;3925;48.636;9.516;2022-11-21T09:52:50;1.80;;;0.90;;
7761;SDS011;3925;48.636;9.516;2022-11-21T09:55:25;1.67;;;1.07;;
7761;SDS011;3925;48.636;9.516;2022-11-21T09:57:56;2.10;;;1.20;;
7761;SDS011;3925;48.636;9.516;2022-11-21T10:00:27;3.60;;;1.97;;
7761;SDS011;3925;48.636;9.516;2022-11-21T10:02:56;3.37;;;1.40;;
7761;SDS011;3925;48.636;9.516;2022-11-21T10:05:28;2.63;;;1.27;;
7761;SDS011;3925;48.636;9.516;2022-11-21T10:08:00;1.90;;;0.90;;
7761;SDS011;3925;48.636;9.516;2022-11-21T10:10:43;4.83;;;1.20;;
7761;SDS011;3925;48.636;9.516;2022-11-21T10:13:18;4.30;;;1.30;;
7761;SDS011;3925;48.636;9.516;2022-11-21T10:15:56;2.83;;;1.13;;
7761;SDS011;3925;48.636;9.516;2022-11-21T10:21:29;5.50;;;1.20;;
7761;SDS011;3925;48.636;9.516;2022-11-21T10:24:21;2.20;;;0.70;;
7761;SDS011;3925;48.636;9.516;2022-11-21T10:27:01;2.13;;;0.80;;
7761;SDS011;3925;48.636;9.516;2022-11-21T10:29:33;1.77;;;0.90;;
7761;SDS011;3925;48.636;9.516;2022-11-21T10:32:07;3.93;;;1.20;;
7761;SDS011;3925;48.636;9.516;2022-11-21T10:34:39;1.30;;;1.07;;
7761;SDS011;3925;48.636;9.516;2022-11-21T10:37:09;1.23;;;0.90;;
7761;SDS011;3925;48.636;9.516;2022-11-21T10:39:42;2.83;;;1.40;;
7761;SDS011;3925;48.636;9.516;2022-11-21T10:42:11;2.60;;;1.10;;
7761;SDS011;3925;48.636;9.516;2022-11-21T10:44:54;1.10;;;0.90;;
7761;SDS011;3925;48.636;9.516;2022-11-21T10:47:42;1.40;;;0.90;;
7761;SDS011;3925;48.636;9.516;2022-11-21T10:50:17;2.57;;;1.50;;
7761;SDS011;3925;48.636;9.516;2022-11-21T10:53:04;2.43;;;1.43;;
7761;SDS011;3925;48.636;9.516;2022-11-21T10:56:00;2.87;;;0.93;;
7761;SDS011;3925;48.636;9.516;2022-11-21T10:58:34;1.87;;;1.03;;
7761;SDS011;3925;48.636;9.516;2022-11-21T11:01:05;3.20;;;1.10;;
7761;SDS011;3925;48.636;9.516;2022-11-21T11:03:32;3.23;;;1.40;;
7761;SDS011;3925;48.636;9.516;2022-11-21T11:05:59;1.97;;;1.23;;
7761;SDS011;3925;48.636;9.516;2022-11-21T11:08:27;4.70;;;1.47;;
7761;SDS011;3925;48.636;9.516;2022-11-21T11:11:02;2.93;;;1.53;;
7761;SDS011;3925;48.636;9.516;2022-11-21T11:13:31;2.87;;;1.33;;
7761;SDS011;3925;48.636;9.516;2022-11-21T11:16:00;2.10;;;1.00;;
7761;SDS011;3925;48.636;9.516;2022-11-21T11:18:29;1.67;;;0.90;;
7761;SDS011;3925;48.636;9.516;2022-11-21T11:21:08;2.13;;;1.20;;
7761;SDS011;3925;48.636;9.516;2022-11-21T11:23:40;1.67;;;1.03;;
7761;SDS011;3925;48.636;9.516;2022-11-21T11:26:19;3.40;;;1.50;;
7761;SDS011;3925;48.636;9.516;2022-11-21T11:28:51;2.20;;;1.10;;
7761;SDS011;3925;48.636;9.516;2022-11-21T11:31:20;1.20;;;1.10;;
7761;SDS011;3925;48.636;9.516;2022-11-21T11:33:50;3.00;;;1.57;;
7761;SDS011;3925;48.636;9.516;2022-11-21T11:36:27;1.50;;;0.80;;
7761;SDS011;3925;48.636;9.516;2022-11-21T11:39:05;2.10;;;0.93;;
7761;SDS011;3925;48.636;9.516;2022-11-21T11:41:45;2.03;;;1.47;;
7761;SDS011;3925;48.636;9.516;2022-11-21T11:44:52;2.83;;;0.90;;
7761;SDS011;3925;48.636;9.516;2022-11-21T11:47:48;2.03;;;1.00;;
7761;SDS011;3925;48.636;9.516;2022-11-21T11:50:20;4.47;;;1.47;;
7761;SDS011;3925;48.636;9.516;2022-11-21T11:52:51;1.60;;;0.73;;
7761;SDS011;3925;48.636;9.516;2022-11-21T11:55:28;2.00;;;1.40;;
7761;SDS011;3925;48.636;9.516;2022-11-21T11:58:04;1.57;;;0.90;;
7761;SDS011;3925;48.636;9.516;2022-11-21T12:00:37;3.30;;;1.43;;
7761;SDS011;3925;48.636;9.516;2022-11-21T12:03:10;3.20;;;0.83;;
7761;SDS011;3925;48.636;9.516;2022-11-21T12:05:44;3.50;;;1.40;;
7761;SDS011;3925;48.636;9.516;2022-11-21T12:08:33;2.80;;;1.07;;
7761;SDS011;3925;48.636;9.516;2022-11-21T12:11:10;3.63;;;0.80;;
7761;SDS011;3925;48.636;9.516;2022-11-21T12:14:00;5.13;;;1.30;;
7761;SDS011;3925;48.636;9.516;2022-11-21T12:16:32;2.80;;;1.00;;
7761;SDS011;3925;48.636;9.516;2022-11-21T12:19:02;3.67;;;1.53;;
7761;SDS011;3925;48.636;9.516;2022-11-21T12:21:35;2.85;;;1.15;;
7761;SDS011;3925;48.636;9.516;2022-11-21T12:24:03;3.47;;;1.60;;
7761;SDS011;3925;48.636;9.516;2022-11-21T12:26:35;2.70;;;1.37;;
7761;SDS011;3925;48.636;9.516;2022-11-21T12:29:20;2.07;;;1.57;;
7761;SDS011;3925;48.636;9.516;2022-11-21T12:32:04;1.73;;;1.50;;
7761;SDS011;3925;48.636;9.516;2022-11-21T12:34:46;2.43;;;1.47;;
7761;SDS011;3925;48.636;9.516;2022-11-21T12:37:32;2.60;;;1.20;;
7761;SDS011;3925;48.636;9.516;2022-11-21T12:40:08;2.30;;;1.20;;
7761;SDS011;3925;48.636;9.516;2022-11-21T12:42:52;3.60;;;1.80;;
7761;SDS011;3925;48.636;9.516;2022-11-21T12:45:29;3.50;;;1.70;;
7761;SDS011;3925;48.636;9.516;2022-11-21T12:48:02;4.97;;;1.30;;
7761;SDS011;3925;48.636;9.516;2022-11-21T12:51:11;1.83;;;0.97;;
7761;SDS011;3925;48.636;9.516;2022-11-21T12:54:26;2.17;;;1.00;;
7761;SDS011;3925;48.636;9.516;2022-11-21T12:57:07;5.00;;;1.10;;
7761;SDS011;3925;48.636;9.516;2022-11-21T12:59:41;3.37;;;1.03;;
7761;SDS011;3925;48.636;9.516;2022-11-21T13:02:18;3.60;;;1.10;;
7761;SDS011;3925;48.636;9.516;2022-11-21T13:04:55;3.73;;;0.80;;
7761;SDS011;3925;48.636;9.516;2022-11-21T13:07:26;1.70;;;1.37;;
7761;SDS011;3925;48.636;9.516;2022-11-21T13:09:55;2.57;;;1.40;;
7761;SDS011;3925;48.636;9.516;2022-11-21T13:12:25;2.47;;;1.53;;
7761;SDS011;3925;48.636;9.516;2022-11-21T13:15:03;1.87;;;1.00;;
7761;SDS011;3925;48.636;9.516;2022-11-21T13:17:40;1.37;;;1.00;;
7761;SDS011;3925;48.636;9.516;2022-11-21T13:20:14;2.57;;;1.47;;
7761;SDS011;3925;48.636;9.516;2022-11-21T13:22:53;1.80;;;0.90;;
7761;SDS011;3925;48.636;9.516;2022-11-21T13:25:37;1.90;;;1.23;;
7761;SDS011;3925;48.636;9.516;2022-11-21T13:30:59;5.90;;;1.43;;
7761;SDS011;3925;48.636;9.516;2022-11-21T13:39:24;6.83;;;0.90;;
7761;SDS011;3925;48.636;9.516;2022-11-21T13:41:57;3.20;;;0.93;;
7761;SDS011;3925;48.636;9.516;2022-11-21T13:44:42;4.20;;;0.97;;
7761;SDS011;3925;48.636;9.516;2022-11-21T13:47:28;3.27;;;1.00;;
7761;SDS011;3925;48.636;9.516;2022-11-21T13:50:04;2.93;;;1.40;;
7761;SDS011;3925;48.636;9.516;2022-11-21T13:52:40;1.77;;;1.00;;
7761;SDS011;3925;48.636;9.516;2022-11-21T13:55:24;6.83;;;1.70;;
7761;SDS011;3925;48.636;9.516;2022-11-21T13:58:07;3.50;;;1.40;;
7761;SDS011;3925;48.636;9.516;2022-11-21T14:00:51;4.20;;;1.00;;
7761;SDS011;3925;48.636;9.516;2022-11-21T14:06:33;3.77;;;1.90;;
7761;SDS011;3925;48.636;9.516;2022-11-21T14:12:01;2.30;;;1.20;;
7761;SDS011;3925;48.636;9.516;2022-11-21T14:14:35;2.97;;;1.27;;
7761;SDS011;3925;48.636;9.516;2022-11-21T14:17:13;1.40;;;0.80;;
7761;SDS011;3925;48.636;9.516;2022-11-21T14:19:51;3.30;;;1.37;;
7761;SDS011;3925;48.636;9.516;2022-11-21T14:22:23;2.03;;;1.77;;
7761;SDS011;3925;48.636;9.516;2022-11-21T14:24:52;2.90;;;1.93;;
7761;SDS011;3925;48.636;9.516;2022-11-21T14:27:23;6.83;;;2.43;;
7761;SDS011;3925;48.636;9.516;2022-11-21T14:29:53;5.50;;;1.23;;
7761;SDS011;3925;48.636;9.516;2022-11-21T14:32:26;3.27;;;1.60;;
7761;SDS011;3925;48.636;9.516;2022-11-21T14:35:07;3.70;;;1.50;;
7761;SDS011;3925;48.636;9.516;2022-11-21T14:37:38;3.93;;;1.57;;
7761;SDS011;3925;48.636;9.516;2022-11-21T14:40:09;2.27;;;1.53;;
7761;SDS011;3925;48.636;9.516;2022-11-21T14:42:37;5.70;;;1.93;;
7761;SDS011;3925;48.636;9.516;2022-11-21T14:45:05;3.13;;;1.60;;
7761;SDS011;3925;48.636;9.516;2022-11-21T14:47:33;3.47;;;2.60;;
7761;SDS011;3925;48.636;9.516;2022-11-21T14:50:00;6.47;;;5.47;;
7761;SDS011;3925;48.636;9.516;2022-11-21T14:52:30;16.33;;;9.70;;
7761;SDS011;3925;48.636;9.516;2022-11-21T14:54:59;8.63;;;6.10;;
7761;SDS011;3925;48.636;9.516;2022-11-21T14:57:27;8.63;;;6.30;;
7761;SDS011;3925;48.636;9.516;2022-11-21T14:59:56;5.83;;;3.80;;
7761;SDS011;3925;48.636;9.516;2022-11-21T15:02:24;5.43;;;2.57;;
7761;SDS011;3925;48.636;9.516;2022-11-21T15:04:52;4.10;;;2.03;;
7761;SDS011;3925;48.636;9.516;2022-11-21T15:07:25;4.63;;;1.60;;
7761;SDS011;3925;48.636;9.516;2022-11-21T15:09:55;6.37;;;2.10;;
7761;SDS011;3925;48.636;9.516;2022-11-21T15:12:25;4.03;;;2.40;;
7761;SDS011;3925;48.636;9.516;2022-11-21T15:14:56;4.40;;;1.57;;
7761;SDS011;3925;48.636;9.516;2022-11-21T15:17:25;1.43;;;1.20;;
7761;SDS011;3925;48.636;9.516;2022-11-21T15:20:15;3.73;;;2.03;;
7761;SDS011;3925;48.636;9.516;2022-11-21T15:22:45;3.70;;;1.23;;
7761;SDS011;3925;48.636;9.516;2022-11-21T15:25:16;3.83;;;1.40;;
7761;SDS011;3925;48.636;9.516;2022-11-21T15:27:44;5.90;;;3.87;;
7761;SDS011;3925;48.636;9.516;2022-11-21T15:30:20;4.73;;;3.13;;
7761;SDS011;3925;48.636;9.516;2022-11-21T15:35:41;6.30;;;1.67;;
7761;SDS011;3925;48.636;9.516;2022-11-21T15:38:15;2.17;;;1.97;;
7761;SDS011;3925;48.636;9.516;2022-11-21T15:40:57;4.90;;;3.40;;
7761;SDS011;3925;48.636;9.516;2022-11-21T15:43:36;2.47;;;1.90;;
7761;SDS011;3925;48.636;9.516;2022-11-21T15:46:11;3.37;;;1.80;;
7761;SDS011;3925;48.636;9.516;2022-11-21T15:48:46;5.70;;;2.50;;
7761;SDS011;3925;48.636;9.516;2022-11-21T15:51:13;1.83;;;1.73;;
7761;SDS011;3925;48.636;9.516;2022-11-21T15:53:41;3.30;;;2.67;;
7761;SDS011;3925;48.636;9.516;2022-11-21T15:56:10;6.30;;;3.10;;
7761;SDS011;3925;48.636;9.516;2022-11-21T15:58:39;3.90;;;3.50;;
7761;SDS011;3925;48.636;9.516;2022-11-21T16:01:10;2.90;;;2.67;;